Bookmark and Share
Track history (hours):
 

Janet

Last reported at 2014-Apr-19 03:33 UTC. Time now 2014-Apr-20 15:56 UTC.
Position N 37°48' W 009°35'.

Length 90 m; draft 6.1 m.

Type: Cargo ship. MMSI: 256371000.

NotesDate/timePositionNaut miles runAvg speedWind from/ knotsBaromVisibWave heightAir tempDewpointWater temp
2014-Apr-19 03:33N 37°48' W 009°35'30 9.9
2014-Apr-19 00:32N 37°19' W 009°26'12 9.7
2014-Apr-18 23:21N 37°08' W 009°23'46 8.8
2014-Apr-18 18:07N 36°37' W 008°41'15610.0
2014-Apr-18 02:32N 35°58' W 005°34'8 8.4
2014-Apr-18 01:33N 35°58' W 005°24'6 5.3
2014-Apr-18 00:31N 35°54' W 005°19'0 0.0
2014-Apr-17 23:31N 35°54' W 005°19'0 0.0
2014-Apr-17 22:31N 35°54' W 005°19'0 0.0
2014-Apr-17 21:31N 35°54' W 005°19'0 0.0
2014-Apr-17 20:31N 35°54' W 005°19'0 0.0
2014-Apr-17 19:33N 35°54' W 005°19'5 4.9
2014-Apr-17 18:33N 35°55' W 005°13'39510.4
2014-Apr-16 04:23N 37°06' E 002°51'10 9.2
2014-Apr-16 03:20N 37°08' E 003°03'4210.3
2014-Apr-15 23:17N 37°12' E 003°55'48710.0
2014-Apr-13 22:26N 36°37' E 014°02'488 9.9
2014-Apr-11 21:05N 37°17' E 024°11'810.9
2014-Apr-11 20:22N 37°23' E 024°16'910.7
2014-Apr-11 19:29N 37°31' E 024°23'2110.7
2014-Apr-11 17:32N 37°50' E 024°33'  

Dump ship's entire track history

sailing weather and tide predictions

Janet — 9HSL8 — position and weather